sensor_id;sensor_type;location;lat;lon;timestamp;P1;durP1;ratioP1;P2;durP2;ratioP2
20697;SDS011;10508;50.956;4.640;2022-10-16T00:01:32;0.93;;;0.68;;
20697;SDS011;10508;50.956;4.640;2022-10-16T00:03:58;0.60;;;0.50;;
20697;SDS011;10508;50.956;4.640;2022-10-16T00:06:25;0.88;;;0.60;;
20697;SDS011;10508;50.956;4.640;2022-10-16T00:08:52;3.22;;;0.70;;
20697;SDS011;10508;50.956;4.640;2022-10-16T00:11:25;3.53;;;0.82;;
20697;SDS011;10508;50.956;4.640;2022-10-16T00:13:55;4.18;;;0.73;;
20697;SDS011;10508;50.956;4.640;2022-10-16T00:16:23;2.47;;;0.63;;
20697;SDS011;10508;50.956;4.640;2022-10-16T00:18:49;2.47;;;0.88;;
20697;SDS011;10508;50.956;4.640;2022-10-16T00:21:16;0.35;;;0.35;;
20697;SDS011;10508;50.956;4.640;2022-10-16T00:23:53;1.30;;;0.90;;
20697;SDS011;10508;50.956;4.640;2022-10-16T00:26:24;2.72;;;0.70;;
20697;SDS011;10508;50.956;4.640;2022-10-16T00:29:09;4.13;;;0.82;;
20697;SDS011;10508;50.956;4.640;2022-10-16T00:31:34;2.25;;;0.50;;
20697;SDS011;10508;50.956;4.640;2022-10-16T00:34:00;4.82;;;1.00;;
20697;SDS011;10508;50.956;4.640;2022-10-16T00:36:26;0.93;;;0.50;;
20697;SDS011;10508;50.956;4.640;2022-10-16T00:38:52;0.57;;;0.47;;
20697;SDS011;10508;50.956;4.640;2022-10-16T00:41:23;2.08;;;0.93;;
20697;SDS011;10508;50.956;4.640;2022-10-16T00:46:23;1.00;;;0.50;;
20697;SDS011;10508;50.956;4.640;2022-10-16T00:49:03;0.70;;;0.50;;
20697;SDS011;10508;50.956;4.640;2022-10-16T00:51:46;0.65;;;0.43;;
20697;SDS011;10508;50.956;4.640;2022-10-16T00:54:24;0.30;;;0.30;;
20697;SDS011;10508;50.956;4.640;2022-10-16T00:56:53;0.30;;;0.30;;
20697;SDS011;10508;50.956;4.640;2022-10-16T01:01:54;1.13;;;0.57;;
20697;SDS011;10508;50.956;4.640;2022-10-16T01:04:21;3.20;;;0.73;;
20697;SDS011;10508;50.956;4.640;2022-10-16T01:06:57;1.50;;;0.55;;
20697;SDS011;10508;50.956;4.640;2022-10-16T01:12:40;0.95;;;0.50;;
20697;SDS011;10508;50.956;4.640;2022-10-16T01:15:33;0.65;;;0.50;;
20697;SDS011;10508;50.956;4.640;2022-10-16T01:20:47;0.80;;;0.63;;
20697;SDS011;10508;50.956;4.640;2022-10-16T01:28:49;0.80;;;0.50;;
20697;SDS011;10508;50.956;4.640;2022-10-16T01:31:33;2.33;;;0.80;;
20697;SDS011;10508;50.956;4.640;2022-10-16T01:36:41;1.25;;;0.80;;
20697;SDS011;10508;50.956;4.640;2022-10-16T01:39:12;3.38;;;0.90;;
20697;SDS011;10508;50.956;4.640;2022-10-16T01:41:41;2.92;;;0.47;;
20697;SDS011;10508;50.956;4.640;2022-10-16T01:44:21;1.30;;;0.40;;
20697;SDS011;10508;50.956;4.640;2022-10-16T01:46:53;0.63;;;0.47;;
20697;SDS011;10508;50.956;4.640;2022-10-16T01:49:20;1.50;;;0.60;;
20697;SDS011;10508;50.956;4.640;2022-10-16T01:51:48;1.00;;;0.50;;
20697;SDS011;10508;50.956;4.640;2022-10-16T01:54:19;0.80;;;0.38;;
20697;SDS011;10508;50.956;4.640;2022-10-16T01:56:47;0.75;;;0.60;;
20697;SDS011;10508;50.956;4.640;2022-10-16T01:59:16;0.90;;;0.60;;
20697;SDS011;10508;50.956;4.640;2022-10-16T02:01:46;0.60;;;0.40;;
20697;SDS011;10508;50.956;4.640;2022-10-16T02:04:17;3.13;;;0.70;;
20697;SDS011;10508;50.956;4.640;2022-10-16T02:06:47;1.20;;;0.63;;
20697;SDS011;10508;50.956;4.640;2022-10-16T02:09:13;2.72;;;0.68;;
20697;SDS011;10508;50.956;4.640;2022-10-16T02:11:41;2.65;;;0.65;;
20697;SDS011;10508;50.956;4.640;2022-10-16T02:14:08;2.08;;;1.10;;
20697;SDS011;10508;50.956;4.640;2022-10-16T02:16:37;4.30;;;0.75;;
20697;SDS011;10508;50.956;4.640;2022-10-16T02:19:06;1.33;;;0.77;;
20697;SDS011;10508;50.956;4.640;2022-10-16T02:24:08;0.85;;;0.65;;
20697;SDS011;10508;50.956;4.640;2022-10-16T02:26:43;0.98;;;0.50;;
20697;SDS011;10508;50.956;4.640;2022-10-16T02:29:14;0.75;;;0.50;;
20697;SDS011;10508;50.956;4.640;2022-10-16T02:31:43;1.42;;;0.90;;
20697;SDS011;10508;50.956;4.640;2022-10-16T02:34:12;1.75;;;0.80;;
20697;SDS011;10508;50.956;4.640;2022-10-16T02:36:39;3.42;;;0.80;;
20697;SDS011;10508;50.956;4.640;2022-10-16T02:39:06;3.20;;;0.60;;
20697;SDS011;10508;50.956;4.640;2022-10-16T02:41:33;2.75;;;0.80;;
20697;SDS011;10508;50.956;4.640;2022-10-16T02:43:58;2.45;;;0.98;;
20697;SDS011;10508;50.956;4.640;2022-10-16T02:46:24;3.85;;;0.63;;
20697;SDS011;10508;50.956;4.640;2022-10-16T02:48:50;0.88;;;0.65;;
20697;SDS011;10508;50.956;4.640;2022-10-16T02:51:15;1.10;;;0.88;;
20697;SDS011;10508;50.956;4.640;2022-10-16T02:53:41;3.47;;;0.75;;
20697;SDS011;10508;50.956;4.640;2022-10-16T02:56:06;1.08;;;0.60;;
20697;SDS011;10508;50.956;4.640;2022-10-16T02:58:32;1.58;;;0.70;;
20697;SDS011;10508;50.956;4.640;2022-10-16T03:00:58;2.72;;;0.63;;
20697;SDS011;10508;50.956;4.640;2022-10-16T03:03:23;0.90;;;0.70;;
20697;SDS011;10508;50.956;4.640;2022-10-16T03:05:49;0.50;;;0.40;;
20697;SDS011;10508;50.956;4.640;2022-10-16T03:08:15;1.05;;;0.70;;
20697;SDS011;10508;50.956;4.640;2022-10-16T03:10:40;3.95;;;0.90;;
20697;SDS011;10508;50.956;4.640;2022-10-16T03:13:06;1.73;;;1.08;;
20697;SDS011;10508;50.956;4.640;2022-10-16T03:15:32;1.42;;;0.70;;
20697;SDS011;10508;50.956;4.640;2022-10-16T03:17:57;0.95;;;0.70;;
20697;SDS011;10508;50.956;4.640;2022-10-16T03:20:24;1.45;;;0.88;;
20697;SDS011;10508;50.956;4.640;2022-10-16T03:22:49;0.88;;;0.70;;
20697;SDS011;10508;50.956;4.640;2022-10-16T03:25:15;0.80;;;0.68;;
20697;SDS011;10508;50.956;4.640;2022-10-16T03:27:41;2.53;;;1.10;;
20697;SDS011;10508;50.956;4.640;2022-10-16T03:30:07;2.25;;;0.93;;
20697;SDS011;10508;50.956;4.640;2022-10-16T03:32:33;2.22;;;0.95;;
20697;SDS011;10508;50.956;4.640;2022-10-16T03:34:58;2.58;;;0.85;;
20697;SDS011;10508;50.956;4.640;2022-10-16T03:37:24;2.72;;;0.80;;
20697;SDS011;10508;50.956;4.640;2022-10-16T03:39:50;1.38;;;0.95;;
20697;SDS011;10508;50.956;4.640;2022-10-16T03:42:15;0.75;;;0.65;;
20697;SDS011;10508;50.956;4.640;2022-10-16T03:44:41;1.25;;;0.82;;
20697;SDS011;10508;50.956;4.640;2022-10-16T03:47:06;2.45;;;0.88;;
20697;SDS011;10508;50.956;4.640;2022-10-16T03:49:32;4.50;;;0.90;;
20697;SDS011;10508;50.956;4.640;2022-10-16T03:51:57;1.60;;;0.82;;
20697;SDS011;10508;50.956;4.640;2022-10-16T03:54:23;1.90;;;1.23;;
20697;SDS011;10508;50.956;4.640;2022-10-16T03:56:49;2.20;;;1.17;;
20697;SDS011;10508;50.956;4.640;2022-10-16T03:59:14;2.65;;;1.13;;
20697;SDS011;10508;50.956;4.640;2022-10-16T04:01:40;1.60;;;0.90;;
20697;SDS011;10508;50.956;4.640;2022-10-16T04:04:05;5.93;;;1.35;;
20697;SDS011;10508;50.956;4.640;2022-10-16T04:06:31;4.47;;;1.08;;
20697;SDS011;10508;50.956;4.640;2022-10-16T04:08:57;0.82;;;0.73;;
20697;SDS011;10508;50.956;4.640;2022-10-16T04:11:22;1.67;;;0.80;;
20697;SDS011;10508;50.956;4.640;2022-10-16T04:13:48;1.15;;;0.77;;
20697;SDS011;10508;50.956;4.640;2022-10-16T04:16:13;3.53;;;0.80;;
20697;SDS011;10508;50.956;4.640;2022-10-16T04:18:39;1.88;;;0.80;;
20697;SDS011;10508;50.956;4.640;2022-10-16T04:21:05;1.42;;;0.80;;
20697;SDS011;10508;50.956;4.640;2022-10-16T04:23:31;3.83;;;0.80;;
20697;SDS011;10508;50.956;4.640;2022-10-16T04:25:57;1.73;;;0.90;;
20697;SDS011;10508;50.956;4.640;2022-10-16T04:28:23;5.97;;;0.98;;
20697;SDS011;10508;50.956;4.640;2022-10-16T04:30:48;4.15;;;0.82;;
20697;SDS011;10508;50.956;4.640;2022-10-16T04:33:14;1.23;;;0.80;;
20697;SDS011;10508;50.956;4.640;2022-10-16T04:35:39;0.90;;;0.82;;
20697;SDS011;10508;50.956;4.640;2022-10-16T04:38:05;2.38;;;1.02;;
20697;SDS011;10508;50.956;4.640;2022-10-16T04:40:31;1.73;;;0.93;;
20697;SDS011;10508;50.956;4.640;2022-10-16T04:43:02;8.73;;;1.58;;
20697;SDS011;10508;50.956;4.640;2022-10-16T04:45:28;3.85;;;0.90;;
20697;SDS011;10508;50.956;4.640;2022-10-16T04:47:56;6.72;;;0.98;;
20697;SDS011;10508;50.956;4.640;2022-10-16T04:50:22;3.60;;;1.00;;
20697;SDS011;10508;50.956;4.640;2022-10-16T04:52:48;3.55;;;1.42;;
20697;SDS011;10508;50.956;4.640;2022-10-16T04:55:14;1.92;;;0.70;;
20697;SDS011;10508;50.956;4.640;2022-10-16T04:57:40;3.15;;;1.05;;
20697;SDS011;10508;50.956;4.640;2022-10-16T05:00:06;1.58;;;1.05;;
20697;SDS011;10508;50.956;4.640;2022-10-16T05:02:33;2.65;;;1.10;;
20697;SDS011;10508;50.956;4.640;2022-10-16T05:04:58;3.00;;;0.80;;
20697;SDS011;10508;50.956;4.640;2022-10-16T05:07:24;1.33;;;1.05;;
20697;SDS011;10508;50.956;4.640;2022-10-16T05:09:50;3.50;;;1.02;;
20697;SDS011;10508;50.956;4.640;2022-10-16T05:12:15;2.65;;;1.20;;
20697;SDS011;10508;50.956;4.640;2022-10-16T05:14:41;2.78;;;1.27;;
20697;SDS011;10508;50.956;4.640;2022-10-16T05:17:07;1.25;;;0.80;;
20697;SDS011;10508;50.956;4.640;2022-10-16T05:19:32;1.65;;;1.00;;
20697;SDS011;10508;50.956;4.640;2022-10-16T05:21:58;2.75;;;1.33;;
20697;SDS011;10508;50.956;4.640;2022-10-16T05:24:24;0.80;;;0.80;;
20697;SDS011;10508;50.956;4.640;2022-10-16T05:26:50;6.65;;;1.50;;
20697;SDS011;10508;50.956;4.640;2022-10-16T05:29:15;5.65;;;1.45;;
20697;SDS011;10508;50.956;4.640;2022-10-16T05:31:41;5.47;;;1.40;;
20697;SDS011;10508;50.956;4.640;2022-10-16T05:34:07;3.17;;;1.23;;
20697;SDS011;10508;50.956;4.640;2022-10-16T05:36:32;2.67;;;1.00;;
20697;SDS011;10508;50.956;4.640;2022-10-16T05:38:58;4.18;;;0.98;;
20697;SDS011;10508;50.956;4.640;2022-10-16T05:41:24;4.10;;;1.10;;
20697;SDS011;10508;50.956;4.640;2022-10-16T05:43:51;3.85;;;1.20;;
20697;SDS011;10508;50.956;4.640;2022-10-16T05:46:17;1.98;;;1.00;;
20697;SDS011;10508;50.956;4.640;2022-10-16T05:48:43;1.38;;;0.88;;
20697;SDS011;10508;50.956;4.640;2022-10-16T05:51:10;3.05;;;1.15;;
20697;SDS011;10508;50.956;4.640;2022-10-16T05:53:37;1.83;;;1.00;;
20697;SDS011;10508;50.956;4.640;2022-10-16T05:56:04;5.93;;;1.00;;
20697;SDS011;10508;50.956;4.640;2022-10-16T05:58:31;1.67;;;1.02;;
20697;SDS011;10508;50.956;4.640;2022-10-16T06:01:04;2.38;;;1.20;;
20697;SDS011;10508;50.956;4.640;2022-10-16T06:03:31;3.85;;;1.17;;
20697;SDS011;10508;50.956;4.640;2022-10-16T06:05:57;1.40;;;1.08;;
20697;SDS011;10508;50.956;4.640;2022-10-16T06:08:23;4.43;;;1.60;;
20697;SDS011;10508;50.956;4.640;2022-10-16T06:10:49;2.00;;;1.10;;
20697;SDS011;10508;50.956;4.640;2022-10-16T06:13:29;5.80;;;1.25;;
20697;SDS011;10508;50.956;4.640;2022-10-16T06:15:56;2.53;;;1.27;;
20697;SDS011;10508;50.956;4.640;2022-10-16T06:18:23;1.33;;;0.95;;
20697;SDS011;10508;50.956;4.640;2022-10-16T06:20:49;1.77;;;1.10;;
20697;SDS011;10508;50.956;4.640;2022-10-16T06:23:15;1.55;;;1.00;;
20697;SDS011;10508;50.956;4.640;2022-10-16T06:25:40;3.03;;;1.05;;
20697;SDS011;10508;50.956;4.640;2022-10-16T06:28:06;3.33;;;1.00;;
20697;SDS011;10508;50.956;4.640;2022-10-16T06:30:31;3.08;;;0.85;;
20697;SDS011;10508;50.956;4.640;2022-10-16T06:32:57;3.42;;;1.15;;
20697;SDS011;10508;50.956;4.640;2022-10-16T06:35:23;2.15;;;1.10;;
20697;SDS011;10508;50.956;4.640;2022-10-16T06:37:48;2.08;;;1.35;;
20697;SDS011;10508;50.956;4.640;2022-10-16T06:40:14;2.63;;;1.23;;
20697;SDS011;10508;50.956;4.640;2022-10-16T06:42:40;1.63;;;1.23;;
20697;SDS011;10508;50.956;4.640;2022-10-16T06:45:06;3.60;;;1.00;;
20697;SDS011;10508;50.956;4.640;2022-10-16T06:47:32;1.25;;;0.93;;
20697;SDS011;10508;50.956;4.640;2022-10-16T06:49:58;2.92;;;1.25;;
20697;SDS011;10508;50.956;4.640;2022-10-16T06:52:23;1.13;;;0.85;;
20697;SDS011;10508;50.956;4.640;2022-10-16T06:54:49;3.60;;;1.35;;
20697;SDS011;10508;50.956;4.640;2022-10-16T06:57:15;1.35;;;0.80;;
20697;SDS011;10508;50.956;4.640;2022-10-16T06:59:41;1.50;;;0.90;;
20697;SDS011;10508;50.956;4.640;2022-10-16T07:02:07;5.15;;;1.10;;
20697;SDS011;10508;50.956;4.640;2022-10-16T07:04:35;6.07;;;1.40;;
20697;SDS011;10508;50.956;4.640;2022-10-16T07:07:01;3.75;;;1.15;;
20697;SDS011;10508;50.956;4.640;2022-10-16T07:09:27;4.13;;;1.25;;
20697;SDS011;10508;50.956;4.640;2022-10-16T07:11:53;2.53;;;0.98;;
20697;SDS011;10508;50.956;4.640;2022-10-16T07:14:19;1.45;;;0.90;;
20697;SDS011;10508;50.956;4.640;2022-10-16T07:16:46;4.68;;;1.00;;
20697;SDS011;10508;50.956;4.640;2022-10-16T07:19:13;1.75;;;1.08;;
20697;SDS011;10508;50.956;4.640;2022-10-16T07:21:40;3.05;;;1.27;;
20697;SDS011;10508;50.956;4.640;2022-10-16T07:24:07;2.35;;;0.88;;
20697;SDS011;10508;50.956;4.640;2022-10-16T07:26:38;3.83;;;1.38;;
20697;SDS011;10508;50.956;4.640;2022-10-16T07:29:05;1.60;;;1.00;;
20697;SDS011;10508;50.956;4.640;2022-10-16T07:31:41;4.07;;;1.20;;
20697;SDS011;10508;50.956;4.640;2022-10-16T07:34:07;3.28;;;0.82;;
20697;SDS011;10508;50.956;4.640;2022-10-16T07:36:32;4.53;;;0.80;;
20697;SDS011;10508;50.956;4.640;2022-10-16T07:38:58;3.40;;;1.23;;
20697;SDS011;10508;50.956;4.640;2022-10-16T07:41:23;3.38;;;1.00;;
20697;SDS011;10508;50.956;4.640;2022-10-16T07:43:50;3.38;;;1.30;;
20697;SDS011;10508;50.956;4.640;2022-10-16T07:46:18;2.45;;;0.95;;
20697;SDS011;10508;50.956;4.640;2022-10-16T07:48:44;3.10;;;1.15;;
20697;SDS011;10508;50.956;4.640;2022-10-16T07:51:12;6.60;;;1.10;;
20697;SDS011;10508;50.956;4.640;2022-10-16T07:53:40;3.35;;;0.93;;
20697;SDS011;10508;50.956;4.640;2022-10-16T07:56:06;2.35;;;1.08;;
20697;SDS011;10508;50.956;4.640;2022-10-16T07:58:33;2.80;;;0.98;;
20697;SDS011;10508;50.956;4.640;2022-10-16T08:01:05;3.97;;;1.30;;
20697;SDS011;10508;50.956;4.640;2022-10-16T08:03:32;1.80;;;0.90;;
20697;SDS011;10508;50.956;4.640;2022-10-16T08:05:58;3.25;;;0.90;;
20697;SDS011;10508;50.956;4.640;2022-10-16T08:08:25;3.40;;;0.98;;
20697;SDS011;10508;50.956;4.640;2022-10-16T08:10:51;4.80;;;1.38;;
20697;SDS011;10508;50.956;4.640;2022-10-16T08:13:17;2.35;;;0.70;;
20697;SDS011;10508;50.956;4.640;2022-10-16T08:15:43;4.10;;;0.80;;
20697;SDS011;10508;50.956;4.640;2022-10-16T08:18:10;2.90;;;0.80;;
20697;SDS011;10508;50.956;4.640;2022-10-16T08:20:37;1.80;;;1.10;;
20697;SDS011;10508;50.956;4.640;2022-10-16T08:23:04;4.65;;;1.08;;
20697;SDS011;10508;50.956;4.640;2022-10-16T08:25:30;4.13;;;1.00;;
20697;SDS011;10508;50.956;4.640;2022-10-16T08:27:55;1.05;;;0.63;;
20697;SDS011;10508;50.956;4.640;2022-10-16T08:30:21;2.00;;;0.60;;
20697;SDS011;10508;50.956;4.640;2022-10-16T08:32:48;2.85;;;1.38;;
20697;SDS011;10508;50.956;4.640;2022-10-16T08:35:14;1.35;;;0.70;;
20697;SDS011;10508;50.956;4.640;2022-10-16T08:37:40;2.03;;;0.73;;
20697;SDS011;10508;50.956;4.640;2022-10-16T08:40:07;1.27;;;0.80;;
20697;SDS011;10508;50.956;4.640;2022-10-16T08:45:49;8.68;;;0.75;;
20697;SDS011;10508;50.956;4.640;2022-10-16T08:48:21;4.22;;;0.90;;
20697;SDS011;10508;50.956;4.640;2022-10-16T08:50:55;1.05;;;0.50;;
20697;SDS011;10508;50.956;4.640;2022-10-16T08:53:23;3.95;;;0.55;;
20697;SDS011;10508;50.956;4.640;2022-10-16T08:56:00;3.30;;;0.50;;
20697;SDS011;10508;50.956;4.640;2022-10-16T08:58:26;7.55;;;0.85;;
20697;SDS011;10508;50.956;4.640;2022-10-16T09:00:54;2.40;;;0.88;;
20697;SDS011;10508;50.956;4.640;2022-10-16T09:08:50;6.15;;;1.15;;
20697;SDS011;10508;50.956;4.640;2022-10-16T09:11:58;3.25;;;1.20;;
20697;SDS011;10508;50.956;4.640;2022-10-16T09:14:37;6.90;;;0.73;;
20697;SDS011;10508;50.956;4.640;2022-10-16T09:17:56;0.98;;;0.73;;
20697;SDS011;10508;50.956;4.640;2022-10-16T09:23:19;3.83;;;0.70;;
20697;SDS011;10508;50.956;4.640;2022-10-16T09:26:03;2.92;;;0.60;;
20697;SDS011;10508;50.956;4.640;2022-10-16T09:28:34;2.95;;;1.30;;
20697;SDS011;10508;50.956;4.640;2022-10-16T09:31:00;3.08;;;0.60;;
20697;SDS011;10508;50.956;4.640;2022-10-16T09:33:33;1.45;;;0.70;;
20697;SDS011;10508;50.956;4.640;2022-10-16T09:36:02;2.33;;;0.85;;
20697;SDS011;10508;50.956;4.640;2022-10-16T09:38:30;6.45;;;0.95;;
20697;SDS011;10508;50.956;4.640;2022-10-16T09:40:58;2.92;;;0.80;;
20697;SDS011;10508;50.956;4.640;2022-10-16T09:46:03;2.83;;;0.68;;
20697;SDS011;10508;50.956;4.640;2022-10-16T09:48:36;2.30;;;0.68;;
20697;SDS011;10508;50.956;4.640;2022-10-16T09:51:04;2.00;;;0.65;;
20697;SDS011;10508;50.956;4.640;2022-10-16T09:53:39;2.80;;;0.82;;
20697;SDS011;10508;50.956;4.640;2022-10-16T09:56:05;5.75;;;0.80;;
20697;SDS011;10508;50.956;4.640;2022-10-16T09:58:31;1.70;;;0.65;;
20697;SDS011;10508;50.956;4.640;2022-10-16T10:00:58;1.40;;;0.50;;
20697;SDS011;10508;50.956;4.640;2022-10-16T10:03:35;1.00;;;0.52;;
20697;SDS011;10508;50.956;4.640;2022-10-16T10:11:56;2.03;;;0.90;;
20697;SDS011;10508;50.956;4.640;2022-10-16T10:14:24;2.13;;;0.68;;
20697;SDS011;10508;50.956;4.640;2022-10-16T10:19:37;2.35;;;0.80;;
20697;SDS011;10508;50.956;4.640;2022-10-16T10:24:55;3.70;;;0.63;;
20697;SDS011;10508;50.956;4.640;2022-10-16T10:27:24;1.27;;;0.60;;
20697;SDS011;10508;50.956;4.640;2022-10-16T10:32:41;1.30;;;0.65;;
20697;SDS011;10508;50.956;4.640;2022-10-16T10:35:39;2.28;;;0.65;;
20697;SDS011;10508;50.956;4.640;2022-10-16T10:38:39;0.50;;;0.43;;
20697;SDS011;10508;50.956;4.640;2022-10-16T10:44:14;1.63;;;0.60;;
20697;SDS011;10508;50.956;4.640;2022-10-16T10:46:45;1.42;;;0.57;;
20697;SDS011;10508;50.956;4.640;2022-10-16T10:49:50;1.45;;;0.77;;
20697;SDS011;10508;50.956;4.640;2022-10-16T10:52:31;1.75;;;0.47;;
20697;SDS011;10508;50.956;4.640;2022-10-16T11:01:04;2.63;;;0.60;;
20697;SDS011;10508;50.956;4.640;2022-10-16T11:04:23;4.03;;;0.85;;
20697;SDS011;10508;50.956;4.640;2022-10-16T11:06:43;3.33;;;0.70;;
20697;SDS011;10508;50.956;4.640;2022-10-16T11:09:16;1.45;;;0.63;;
20697;SDS011;10508;50.956;4.640;2022-10-16T11:14:34;6.95;;;0.90;;
20697;SDS011;10508;50.956;4.640;2022-10-16T11:17:18;3.50;;;0.80;;
20697;SDS011;10508;50.956;4.640;2022-10-16T11:20:11;5.25;;;0.65;;
20697;SDS011;10508;50.956;4.640;2022-10-16T11:28:07;0.75;;;0.35;;
20697;SDS011;10508;50.956;4.640;2022-10-16T11:33:42;3.95;;;0.90;;
20697;SDS011;10508;50.956;4.640;2022-10-16T11:36:14;1.85;;;0.65;;
20697;SDS011;10508;50.956;4.640;2022-10-16T11:50:09;0.90;;;0.40;;
20697;SDS011;10508;50.956;4.640;2022-10-16T11:53:00;1.80;;;0.73;;
20697;SDS011;10508;50.956;4.640;2022-10-16T11:55:34;3.45;;;0.77;;
20697;SDS011;10508;50.956;4.640;2022-10-16T11:58:06;1.42;;;0.60;;
20697;SDS011;10508;50.956;4.640;2022-10-16T12:06:52;1.08;;;0.43;;
20697;SDS011;10508;50.956;4.640;2022-10-16T12:09:25;2.30;;;0.50;;
20697;SDS011;10508;50.956;4.640;2022-10-16T12:11:54;3.72;;;0.98;;
20697;SDS011;10508;50.956;4.640;2022-10-16T12:14:21;0.85;;;0.65;;
20697;SDS011;10508;50.956;4.640;2022-10-16T12:17:01;6.07;;;0.70;;
20697;SDS011;10508;50.956;4.640;2022-10-16T12:20:01;1.45;;;0.40;;
20697;SDS011;10508;50.956;4.640;2022-10-16T12:22:47;2.47;;;0.60;;
20697;SDS011;10508;50.956;4.640;2022-10-16T12:25:42;3.05;;;0.60;;
20697;SDS011;10508;50.956;4.640;2022-10-16T12:30:40;3.65;;;0.50;;
20697;SDS011;10508;50.956;4.640;2022-10-16T12:33:19;2.10;;;0.63;;
20697;SDS011;10508;50.956;4.640;2022-10-16T12:35:48;2.35;;;0.43;;
20697;SDS011;10508;50.956;4.640;2022-10-16T12:38:15;0.73;;;0.30;;
20697;SDS011;10508;50.956;4.640;2022-10-16T12:40:41;2.80;;;0.50;;
20697;SDS011;10508;50.956;4.640;2022-10-16T12:43:26;6.07;;;0.57;;
20697;SDS011;10508;50.956;4.640;2022-10-16T12:46:04;1.92;;;0.60;;
20697;SDS011;10508;50.956;4.640;2022-10-16T12:48:32;1.73;;;0.68;;
20697;SDS011;10508;50.956;4.640;2022-10-16T12:51:09;10.63;;;0.70;;
20697;SDS011;10508;50.956;4.640;2022-10-16T13:05:19;1.00;;;0.50;;
20697;SDS011;10508;50.956;4.640;2022-10-16T13:11:07;2.85;;;0.65;;
20697;SDS011;10508;50.956;4.640;2022-10-16T13:30:31;1.30;;;0.40;;
20697;SDS011;10508;50.956;4.640;2022-10-16T13:35:35;3.33;;;1.02;;
20697;SDS011;10508;50.956;4.640;2022-10-16T13:43:21;1.02;;;0.32;;
20697;SDS011;10508;50.956;4.640;2022-10-16T13:46:03;3.80;;;0.65;;
20697;SDS011;10508;50.956;4.640;2022-10-16T13:48:31;1.25;;;0.70;;
20697;SDS011;10508;50.956;4.640;2022-10-16T13:51:02;0.65;;;0.50;;
20697;SDS011;10508;50.956;4.640;2022-10-16T13:53:34;2.88;;;0.68;;
20697;SDS011;10508;50.956;4.640;2022-10-16T13:56:01;6.72;;;0.60;;
20697;SDS011;10508;50.956;4.640;2022-10-16T13:58:32;2.72;;;0.65;;
20697;SDS011;10508;50.956;4.640;2022-10-16T14:01:00;1.25;;;0.30;;
20697;SDS011;10508;50.956;4.640;2022-10-16T14:03:28;2.40;;;0.50;;
20697;SDS011;10508;50.956;4.640;2022-10-16T14:05:56;0.77;;;0.55;;
20697;SDS011;10508;50.956;4.640;2022-10-16T14:08:26;1.77;;;0.40;;
20697;SDS011;10508;50.956;4.640;2022-10-16T14:10:55;1.00;;;0.50;;
20697;SDS011;10508;50.956;4.640;2022-10-16T14:13:26;1.33;;;0.47;;
20697;SDS011;10508;50.956;4.640;2022-10-16T14:15:53;3.40;;;0.77;;
20697;SDS011;10508;50.956;4.640;2022-10-16T14:18:21;2.13;;;0.50;;
20697;SDS011;10508;50.956;4.640;2022-10-16T14:20:49;1.38;;;0.70;;
20697;SDS011;10508;50.956;4.640;2022-10-16T14:25:44;3.90;;;0.85;;
20697;SDS011;10508;50.956;4.640;2022-10-16T14:30:48;1.77;;;0.60;;
20697;SDS011;10508;50.956;4.640;2022-10-16T14:36:06;2.10;;;0.80;;
20697;SDS011;10508;50.956;4.640;2022-10-16T14:38:41;2.63;;;0.57;;
20697;SDS011;10508;50.956;4.640;2022-10-16T14:41:12;4.63;;;0.60;;
20697;SDS011;10508;50.956;4.640;2022-10-16T14:43:41;1.77;;;0.70;;
20697;SDS011;10508;50.956;4.640;2022-10-16T14:46:15;1.67;;;0.75;;
20697;SDS011;10508;50.956;4.640;2022-10-16T14:48:49;2.15;;;0.75;;
20697;SDS011;10508;50.956;4.640;2022-10-16T14:51:19;0.77;;;0.50;;
20697;SDS011;10508;50.956;4.640;2022-10-16T14:53:45;1.73;;;0.52;;
20697;SDS011;10508;50.956;4.640;2022-10-16T14:56:15;2.05;;;0.60;;
20697;SDS011;10508;50.956;4.640;2022-10-16T14:58:46;2.47;;;0.82;;
20697;SDS011;10508;50.956;4.640;2022-10-16T15:01:12;3.08;;;0.80;;
20697;SDS011;10508;50.956;4.640;2022-10-16T15:03:38;1.92;;;0.90;;
20697;SDS011;10508;50.956;4.640;2022-10-16T15:06:04;2.67;;;0.77;;
20697;SDS011;10508;50.956;4.640;2022-10-16T15:08:39;2.42;;;0.60;;
20697;SDS011;10508;50.956;4.640;2022-10-16T15:11:05;1.60;;;0.60;;
20697;SDS011;10508;50.956;4.640;2022-10-16T15:13:37;3.55;;;0.80;;
20697;SDS011;10508;50.956;4.640;2022-10-16T15:16:02;1.58;;;0.50;;
20697;SDS011;10508;50.956;4.640;2022-10-16T15:18:28;3.17;;;0.80;;
20697;SDS011;10508;50.956;4.640;2022-10-16T15:20:54;5.75;;;0.93;;
20697;SDS011;10508;50.956;4.640;2022-10-16T15:23:20;1.75;;;0.70;;
20697;SDS011;10508;50.956;4.640;2022-10-16T15:25:51;1.25;;;0.65;;
20697;SDS011;10508;50.956;4.640;2022-10-16T15:28:18;4.57;;;0.88;;
20697;SDS011;10508;50.956;4.640;2022-10-16T15:30:45;0.98;;;0.50;;
20697;SDS011;10508;50.956;4.640;2022-10-16T15:33:18;6.28;;;1.13;;
20697;SDS011;10508;50.956;4.640;2022-10-16T15:35:50;5.22;;;0.90;;
20697;SDS011;10508;50.956;4.640;2022-10-16T15:38:17;8.93;;;0.70;;
20697;SDS011;10508;50.956;4.640;2022-10-16T15:40:43;1.50;;;0.77;;
20697;SDS011;10508;50.956;4.640;2022-10-16T15:43:10;1.92;;;0.80;;
20697;SDS011;10508;50.956;4.640;2022-10-16T15:45:36;2.00;;;0.60;;
20697;SDS011;10508;50.956;4.640;2022-10-16T15:48:02;2.30;;;0.95;;
20697;SDS011;10508;50.956;4.640;2022-10-16T15:50:28;2.65;;;1.00;;
20697;SDS011;10508;50.956;4.640;2022-10-16T15:52:55;2.47;;;1.00;;
20697;SDS011;10508;50.956;4.640;2022-10-16T15:55:21;2.92;;;0.90;;
20697;SDS011;10508;50.956;4.640;2022-10-16T15:57:47;2.25;;;0.80;;
20697;SDS011;10508;50.956;4.640;2022-10-16T16:00:16;2.75;;;0.63;;
20697;SDS011;10508;50.956;4.640;2022-10-16T16:02:49;2.00;;;0.70;;
20697;SDS011;10508;50.956;4.640;2022-10-16T16:05:17;3.13;;;0.93;;
20697;SDS011;10508;50.956;4.640;2022-10-16T16:07:43;3.08;;;0.77;;
20697;SDS011;10508;50.956;4.640;2022-10-16T16:10:10;5.45;;;0.88;;
20697;SDS011;10508;50.956;4.640;2022-10-16T16:12:36;4.82;;;0.95;;
20697;SDS011;10508;50.956;4.640;2022-10-16T16:15:07;1.13;;;0.68;;
20697;SDS011;10508;50.956;4.640;2022-10-16T16:17:34;1.83;;;0.90;;
20697;SDS011;10508;50.956;4.640;2022-10-16T16:20:00;2.53;;;1.08;;
20697;SDS011;10508;50.956;4.640;2022-10-16T16:22:26;2.90;;;1.30;;
20697;SDS011;10508;50.956;4.640;2022-10-16T16:24:52;4.50;;;0.90;;
20697;SDS011;10508;50.956;4.640;2022-10-16T16:27:18;6.20;;;1.65;;
20697;SDS011;10508;50.956;4.640;2022-10-16T16:29:49;6.03;;;1.50;;
20697;SDS011;10508;50.956;4.640;2022-10-16T16:32:15;7.05;;;1.90;;
20697;SDS011;10508;50.956;4.640;2022-10-16T16:34:40;5.95;;;1.75;;
20697;SDS011;10508;50.956;4.640;2022-10-16T16:37:06;2.53;;;1.67;;
20697;SDS011;10508;50.956;4.640;2022-10-16T16:39:32;3.38;;;1.52;;
20697;SDS011;10508;50.956;4.640;2022-10-16T16:41:57;4.93;;;0.77;;
20697;SDS011;10508;50.956;4.640;2022-10-16T16:44:23;5.38;;;1.58;;
20697;SDS011;10508;50.956;4.640;2022-10-16T16:46:49;3.35;;;1.60;;
20697;SDS011;10508;50.956;4.640;2022-10-16T16:49:15;6.35;;;2.30;;
20697;SDS011;10508;50.956;4.640;2022-10-16T16:51:41;6.22;;;2.47;;
20697;SDS011;10508;50.956;4.640;2022-10-16T16:54:07;2.80;;;1.92;;
20697;SDS011;10508;50.956;4.640;2022-10-16T16:56:34;3.63;;;1.88;;
20697;SDS011;10508;50.956;4.640;2022-10-16T16:59:00;2.08;;;1.65;;
20697;SDS011;10508;50.956;4.640;2022-10-16T17:01:26;6.72;;;2.00;;
20697;SDS011;10508;50.956;4.640;2022-10-16T17:03:53;3.40;;;1.50;;
20697;SDS011;10508;50.956;4.640;2022-10-16T17:06:21;11.80;;;2.03;;
20697;SDS011;10508;50.956;4.640;2022-10-16T17:08:48;4.13;;;1.80;;
20697;SDS011;10508;50.956;4.640;2022-10-16T17:11:16;3.75;;;1.85;;
20697;SDS011;10508;50.956;4.640;2022-10-16T17:13:46;5.68;;;1.98;;
20697;SDS011;10508;50.956;4.640;2022-10-16T17:16:12;6.93;;;1.77;;
20697;SDS011;10508;50.956;4.640;2022-10-16T17:18:50;4.40;;;1.42;;